WetterOnline ( https://www.wetteronline.de )

Wetter aktuell Hammelburg

Aktuelles Wetter: Bad Kissingen (266m)

6-stündlich | Neueste Meldungen
Ortszeit Temperatur Wetter
Mo, 28.11. 13:00 4.1° C bedeckt
Mo, 28.11. 7:00 2.6° C bedeckt
Mo, 28.11. 1:00 3.0° C bewölkt
So, 27.11. 19:00 3.0° C bewölkt
So, 27.11. 13:00 3.0° C bedeckt
So, 27.11. 7:00 0.7° C Nebel
So, 27.11. 1:00 4.2° C bedeckt
Sa, 26.11. 19:00 5.2° C bewölkt
Ortszeit Temperatur Wetter
Mo, 28.11. 13:00 4.1° C bedeckt
Mo, 28.11. 12:50 4.1° C bedeckt
Mo, 28.11. 12:40 4.0° C bedeckt
Mo, 28.11. 12:30 3.9° C bedeckt
Mo, 28.11. 12:20 3.9° C Dunst
Mo, 28.11. 12:10 3.9° C bedeckt
Mo, 28.11. 12:00 3.8° C bewölkt
Mo, 28.11. 11:30 3.6° C bedeckt
Mo, 28.11. 11:00 3.4° C bewölkt
Mo, 28.11. 10:30 3.2° C bedeckt
Mo, 28.11. 10:00 2.8° C bedeckt
Ortszeit Relative Feuchte Sichtweite
Mo, 28.11. 13:00 87% 19 km
Mo, 28.11. 7:00 93% 13 km
Mo, 28.11. 1:00 90% 17 km
So, 27.11. 19:00 92% 20 km
So, 27.11. 13:00 96% 12 km
So, 27.11. 7:00 100% 100 m
So, 27.11. 1:00 100% 2.2 km
Sa, 26.11. 19:00 98% 7 km
Ortszeit Relative Feuchte Sichtweite
Mo, 28.11. 13:00 87% 19 km
Mo, 28.11. 12:50 87% -
Mo, 28.11. 12:40 87% -
Mo, 28.11. 12:30 88% 6 km
Mo, 28.11. 12:20 88% -
Mo, 28.11. 12:10 89% -
Mo, 28.11. 12:00 89% 17 km
Mo, 28.11. 11:30 90% 15 km
Mo, 28.11. 11:00 92% 13 km
Mo, 28.11. 10:30 92% 13 km
Mo, 28.11. 10:00 94% 10 km
Ortszeit Niederschlagsmenge Niederschlagsart
Mo, 28.11. 13:00 0.0 l/m2 in 6 Std. -
Mo, 28.11. 7:00 0.0 l/m2 in 12 Std. -
Mo, 28.11. 1:00 0.0 l/m2 in 6 Std. -
So, 27.11. 19:00 0.0 l/m2 in 12 Std. -
So, 27.11. 13:00 0.0 l/m2 in 6 Std. -
So, 27.11. 7:00 0.0 l/m2 in 12 Std. -
So, 27.11. 1:00 0.0 l/m2 in 6 Std. -
Sa, 26.11. 19:00 0.0 l/m2 in 12 Std. -
Ortszeit Niederschlagsmenge Niederschlagsart
Mo, 28.11. 13:00 0.0 l/m2 in 1 Std. -
Mo, 28.11. 12:50 keine Meldung -
Mo, 28.11. 12:40 keine Meldung -
Mo, 28.11. 12:30 0.0 l/m2 in 1 Std. -
Mo, 28.11. 12:20 keine Meldung -
Mo, 28.11. 12:10 keine Meldung -
Mo, 28.11. 12:00 0.0 l/m2 in 1 Std. -
Mo, 28.11. 11:30 0.0 l/m2 in 1 Std. -
Mo, 28.11. 11:00 0.0 l/m2 in 1 Std. -
Mo, 28.11. 10:30 0.0 l/m2 in 1 Std. -
Mo, 28.11. 10:00 0.0 l/m2 in 1 Std. -
Ortszeit Stärke Spitze Richtung
km/h Bft. km/h Grad Sektor
Mo, 28.11. 13:00 2 1 11 80° O
Mo, 28.11. 7:00 7 2 22 30° NO
Mo, 28.11. 1:00 7 2 14 80° O
So, 27.11. 19:00 7 2 18 80° O
So, 27.11. 13:00 7 2 14 70° O
So, 27.11. 7:00 9 2 13 80° O
So, 27.11. 1:00 0 0 11 - -
Sa, 26.11. 19:00 7 2 18 180° S
Ortszeit Stärke Spitze Richtung
km/h Bft. km/h Grad Sektor
Mo, 28.11. 13:00 2 1 6 80° O
Mo, 28.11. 12:50 2 1 - 80° O
Mo, 28.11. 12:40 4 1 - 110° O
Mo, 28.11. 12:30 4 1 7 80° O
Mo, 28.11. 12:20 4 1 - 80° O
Mo, 28.11. 12:10 4 1 - 80° O
Mo, 28.11. 12:00 4 1 7 60° NO
Mo, 28.11. 11:30 6 1 9 60° NO
Mo, 28.11. 11:00 4 1 7 50° NO
Mo, 28.11. 10:30 4 1 7 350° N
Mo, 28.11. 10:00 6 1 9 30° NO
Ortszeit Untergrenze Bedeckung Gattung
total tief tief mittel hoch
Mo, 28.11. 13:00 330 m 8/8 8/8 - - -
Mo, 28.11. 7:00 330 m 8/8 8/8 - - -
Mo, 28.11. 1:00 270 m 8/8 7/8 - - -
So, 27.11. 19:00 240 m 8/8 7/8 - - -
So, 27.11. 13:00 120 m 8/8 8/8 - - -
So, 27.11. 7:00 <30 m 8/8 0/8 - - -
So, 27.11. 1:00 90 m 8/8 8/8 - - -
Sa, 26.11. 19:00 750 m 8/8 5/8 - - -
Ortszeit Bedeckungsgrad in Achtel und Wolkenuntergrenze
Mo, 28.11. 13:00 8(330m) 8(3600m)
Mo, 28.11. 12:50 8(330m) 8(3600m)
Mo, 28.11. 12:40 8
Mo, 28.11. 12:30 8(330m)
Mo, 28.11. 12:20 8(330m)
Mo, 28.11. 12:10 8
Mo, 28.11. 12:00 5(330m) 8(3300m)
Mo, 28.11. 11:30 8(3600m)
Mo, 28.11. 11:00 7(330m) 8(3300m) 8(4500m)
Mo, 28.11. 10:30 8(330m)
Mo, 28.11. 10:00 8(390m) 8(3600m)
Ortszeit Luftdruck NN (hPa) Tendenz (hPa in 3 Std.)
Mo, 28.11. 13:00 1015 - 0,6
Mo, 28.11. 7:00 1016 - 1,3
Mo, 28.11. 1:00 1019 - 1,6
So, 27.11. 19:00 1023 - 2,2
So, 27.11. 13:00 1027 - 1,9
So, 27.11. 7:00 1030 - 0,5
So, 27.11. 1:00 1031 - 0,8
Sa, 26.11. 19:00 1032 + 0,2
Ortszeit Luftdruck NN (hPa) Tendenz (hPa in 3 Std.)
Mo, 28.11. 13:00 1015 - 0,6
Mo, 28.11. 12:50 1015 keine Meldung
Mo, 28.11. 12:40 1015 keine Meldung
Mo, 28.11. 12:30 1016 - 0,4
Mo, 28.11. 12:20 1016 keine Meldung
Mo, 28.11. 12:10 1016 keine Meldung
Mo, 28.11. 12:00 1016 - 0,3
Mo, 28.11. 11:30 1016 - 0,2
Mo, 28.11. 11:00 1016 + 0,3
Mo, 28.11. 10:30 1016 + 0,2
Mo, 28.11. 10:00 1016 + 0,1
Ortszeit Schneehöhe (cm)
Mo, 28.11. 13:00 0
Mo, 28.11. 7:00 0
Mo, 28.11. 1:00 0
So, 27.11. 19:00 0
So, 27.11. 13:00 0
So, 27.11. 7:00 0
So, 27.11. 1:00 0
Sa, 26.11. 19:00 0
Ortszeit Schneehöhe (cm)
Mo, 28.11. 13:00 0
Mo, 28.11. 12:50 0
Mo, 28.11. 12:40 0
Mo, 28.11. 12:30 0
Mo, 28.11. 12:20 0
Mo, 28.11. 12:10 0
Mo, 28.11. 12:00 0
Mo, 28.11. 11:30 0
Mo, 28.11. 11:00 0
Mo, 28.11. 10:30 0
Mo, 28.11. 10:00 0
Link zu dieser Seite / Seite empfehlen

Das Wetter in ...